Aviation Digital Data Service (ADDS)

Output produced by METARs form (1934 UTC 31 July 2014)
found at http://aviationweather.gov/adds/metars/
 
KAVL 311841Z 3118/0118 16003KT P6SM FEW015 BKN035 
     TEMPO 3119/3122 6SM -SHRA SCT015 OVC035 
     FM312200 14003KT P6SM -SHRA OVC060 
     FM010800 00000KT 2SM -SHRA BR OVC007 
     FM011100 00000KT P6SM -SHRA OVC003 
     FM011300 VRB03KT P6SM -SHRA OVC007